sensor_id;sensor_type;location;lat;lon;timestamp;pressure;altitude;pressure_sealevel;temperature;humidity
69879;BME280;57161;43.136;24.706;2023-07-29T00:01:45;98977.72;;;28.20;39.18
69879;BME280;57161;43.136;24.706;2023-07-29T00:04:11;98972.03;;;28.22;39.01
69879;BME280;57161;43.136;24.706;2023-07-29T00:06:40;98962.31;;;28.09;39.29
69879;BME280;57161;43.136;24.706;2023-07-29T00:09:05;98968.19;;;28.13;39.20
69879;BME280;57161;43.136;24.706;2023-07-29T00:11:31;98967.50;;;28.15;39.29
69879;BME280;57161;43.136;24.706;2023-07-29T00:14:01;98952.81;;;28.02;39.18
69879;BME280;57161;43.136;24.706;2023-07-29T00:16:31;98968.81;;;28.09;39.03
69879;BME280;57161;43.136;24.706;2023-07-29T00:18:57;98960.13;;;28.07;39.04
69879;BME280;57161;43.136;24.706;2023-07-29T00:21:22;98962.94;;;28.05;39.27
69879;BME280;57161;43.136;24.706;2023-07-29T00:24:03;98964.34;;;28.04;39.13
69879;BME280;57161;43.136;24.706;2023-07-29T00:26:29;98955.75;;;28.04;39.27
69879;BME280;57161;43.136;24.706;2023-07-29T00:36:40;98933.72;;;27.63;39.34
69879;BME280;57161;43.136;24.706;2023-07-29T00:39:06;98900.97;;;27.48;39.43
69879;BME280;57161;43.136;24.706;2023-07-29T00:41:31;98873.66;;;27.21;39.06
69879;BME280;57161;43.136;24.706;2023-07-29T00:43:57;98942.13;;;27.57;39.17
69879;BME280;57161;43.136;24.706;2023-07-29T00:46:33;98973.72;;;27.81;39.34
69879;BME280;57161;43.136;24.706;2023-07-29T00:48:59;98959.91;;;27.75;39.42
69879;BME280;57161;43.136;24.706;2023-07-29T00:51:38;98919.66;;;27.49;39.35
69879;BME280;57161;43.136;24.706;2023-07-29T00:59:23;98920.75;;;27.38;39.22
69879;BME280;57161;43.136;24.706;2023-07-29T01:04:24;98861.06;;;27.09;39.52
69879;BME280;57161;43.136;24.706;2023-07-29T01:12:21;98962.00;;;27.73;39.29
69879;BME280;57161;43.136;24.706;2023-07-29T01:30:22;98975.28;;;27.62;39.44
69879;BME280;57161;43.136;24.706;2023-07-29T01:33:02;98932.03;;;27.32;39.30
69879;BME280;57161;43.136;24.706;2023-07-29T02:01:34;98972.13;;;27.30;39.50
69879;BME280;57161;43.136;24.706;2023-07-29T02:47:57;98943.09;;;26.76;39.70
69879;BME280;57161;43.136;24.706;2023-07-29T03:31:46;98926.56;;;26.33;39.82
69879;BME280;57161;43.136;24.706;2023-07-29T03:34:13;99007.09;;;26.83;39.87
69879;BME280;57161;43.136;24.706;2023-07-29T03:36:52;99004.88;;;26.81;39.92
69879;BME280;57161;43.136;24.706;2023-07-29T03:44:28;99004.75;;;26.77;39.92
69879;BME280;57161;43.136;24.706;2023-07-29T03:46:54;99012.16;;;26.84;40.03
69879;BME280;57161;43.136;24.706;2023-07-29T03:49:20;99011.94;;;26.78;40.19
69879;BME280;57161;43.136;24.706;2023-07-29T03:51:49;99033.63;;;26.83;40.04
69879;BME280;57161;43.136;24.706;2023-07-29T03:54:15;99008.88;;;26.72;39.81
69879;BME280;57161;43.136;24.706;2023-07-29T03:56:40;99025.84;;;26.86;39.80
69879;BME280;57161;43.136;24.706;2023-07-29T03:59:11;99015.47;;;26.77;39.96
69879;BME280;57161;43.136;24.706;2023-07-29T04:01:37;99013.94;;;26.74;40.14
69879;BME280;57161;43.136;24.706;2023-07-29T04:04:05;99007.25;;;26.67;40.12
69879;BME280;57161;43.136;24.706;2023-07-29T04:06:31;99031.34;;;26.80;39.99
69879;BME280;57161;43.136;24.706;2023-07-29T04:08:57;99035.09;;;26.84;40.22
69879;BME280;57161;43.136;24.706;2023-07-29T04:11:23;99028.53;;;26.82;39.92
69879;BME280;57161;43.136;24.706;2023-07-29T04:13:49;99032.81;;;26.81;40.05
69879;BME280;57161;43.136;24.706;2023-07-29T04:16:17;98997.78;;;26.62;40.01
69879;BME280;57161;43.136;24.706;2023-07-29T04:18:43;99030.91;;;26.87;40.07
69879;BME280;57161;43.136;24.706;2023-07-29T04:21:08;99028.63;;;26.84;39.90
69879;BME280;57161;43.136;24.706;2023-07-29T04:23:36;99035.31;;;26.90;39.77
69879;BME280;57161;43.136;24.706;2023-07-29T04:26:10;99030.19;;;26.87;39.70
69879;BME280;57161;43.136;24.706;2023-07-29T04:28:55;99031.72;;;26.90;39.92
69879;BME280;57161;43.136;24.706;2023-07-29T04:31:30;99013.00;;;26.67;39.62
69879;BME280;57161;43.136;24.706;2023-07-29T05:17:07;99059.56;;;27.07;39.69
69879;BME280;57161;43.136;24.706;2023-07-29T05:30:43;99026.06;;;27.14;39.56
69879;BME280;57161;43.136;24.706;2023-07-29T05:33:10;99021.22;;;27.18;39.65
69879;BME280;57161;43.136;24.706;2023-07-29T05:35:35;99029.41;;;27.28;39.29
69879;BME280;57161;43.136;24.706;2023-07-29T05:38:01;99019.16;;;27.21;39.37
69879;BME280;57161;43.136;24.706;2023-07-29T05:40:28;99022.94;;;27.28;39.72
69879;BME280;57161;43.136;24.706;2023-07-29T05:42:54;99022.16;;;27.25;39.57
69879;BME280;57161;43.136;24.706;2023-07-29T05:45:19;99035.38;;;27.34;39.64
69879;BME280;57161;43.136;24.706;2023-07-29T05:47:45;99033.97;;;27.35;39.57
69879;BME280;57161;43.136;24.706;2023-07-29T05:50:10;99031.16;;;27.37;39.48
69879;BME280;57161;43.136;24.706;2023-07-29T05:52:36;99027.50;;;27.35;39.65
69879;BME280;57161;43.136;24.706;2023-07-29T05:55:02;99027.34;;;27.31;39.55
69879;BME280;57161;43.136;24.706;2023-07-29T05:57:28;99022.94;;;27.28;39.51
69879;BME280;57161;43.136;24.706;2023-07-29T05:59:53;99023.75;;;27.30;39.66
69879;BME280;57161;43.136;24.706;2023-07-29T06:02:19;99017.75;;;27.22;39.67
69879;BME280;57161;43.136;24.706;2023-07-29T06:04:47;99031.63;;;27.30;39.59
69879;BME280;57161;43.136;24.706;2023-07-29T06:07:13;99031.00;;;27.33;39.57
69879;BME280;57161;43.136;24.706;2023-07-29T06:09:39;99025.88;;;27.30;39.81
69879;BME280;57161;43.136;24.706;2023-07-29T06:12:05;99013.88;;;27.35;39.83
69879;BME280;57161;43.136;24.706;2023-07-29T06:14:31;99020.47;;;27.40;39.59
69879;BME280;57161;43.136;24.706;2023-07-29T06:16:56;99013.34;;;27.41;39.68
69879;BME280;57161;43.136;24.706;2023-07-29T06:19:22;99004.63;;;27.37;39.71
69879;BME280;57161;43.136;24.706;2023-07-29T06:21:48;99006.94;;;27.42;39.41
69879;BME280;57161;43.136;24.706;2023-07-29T06:24:13;99004.75;;;27.41;39.55
69879;BME280;57161;43.136;24.706;2023-07-29T06:26:39;99009.06;;;27.42;39.60
69879;BME280;57161;43.136;24.706;2023-07-29T06:29:04;99006.59;;;27.32;39.69
69879;BME280;57161;43.136;24.706;2023-07-29T06:31:30;98995.66;;;27.27;39.77
69879;BME280;57161;43.136;24.706;2023-07-29T06:33:57;99010.81;;;27.29;40.06
69879;BME280;57161;43.136;24.706;2023-07-29T06:36:23;99014.22;;;27.24;39.98
69879;BME280;57161;43.136;24.706;2023-07-29T06:38:49;99007.41;;;27.13;40.30
69879;BME280;57161;43.136;24.706;2023-07-29T06:41:14;99018.75;;;27.09;40.43
69879;BME280;57161;43.136;24.706;2023-07-29T06:43:40;99005.38;;;26.96;40.61
69879;BME280;57161;43.136;24.706;2023-07-29T06:46:05;99010.31;;;26.93;40.83
69879;BME280;57161;43.136;24.706;2023-07-29T06:48:31;99015.13;;;26.86;41.08
69879;BME280;57161;43.136;24.706;2023-07-29T06:50:56;99014.94;;;26.82;41.03
69879;BME280;57161;43.136;24.706;2023-07-29T06:53:26;99014.94;;;26.82;41.23
69879;BME280;57161;43.136;24.706;2023-07-29T06:55:52;99005.34;;;26.74;41.18
69879;BME280;57161;43.136;24.706;2023-07-29T06:58:17;99006.03;;;26.72;41.40
69879;BME280;57161;43.136;24.706;2023-07-29T07:00:42;99004.50;;;26.69;41.42
69879;BME280;57161;43.136;24.706;2023-07-29T07:03:08;99006.63;;;26.69;41.49
69879;BME280;57161;43.136;24.706;2023-07-29T07:05:34;99014.63;;;26.72;41.28
69879;BME280;57161;43.136;24.706;2023-07-29T07:07:59;99005.28;;;26.72;41.36
69879;BME280;57161;43.136;24.706;2023-07-29T07:10:24;99021.22;;;26.77;41.29
69879;BME280;57161;43.136;24.706;2023-07-29T07:12:50;98999.19;;;26.61;41.41
69879;BME280;57161;43.136;24.706;2023-07-29T07:15:16;99011.94;;;26.78;41.56
69879;BME280;57161;43.136;24.706;2023-07-29T07:17:41;99011.28;;;26.80;41.55
69879;BME280;57161;43.136;24.706;2023-07-29T07:20:07;99017.00;;;26.80;41.52
69879;BME280;57161;43.136;24.706;2023-07-29T07:22:32;98998.88;;;26.73;41.61
69879;BME280;57161;43.136;24.706;2023-07-29T07:24:58;99001.22;;;26.79;41.72
69879;BME280;57161;43.136;24.706;2023-07-29T07:27:23;98988.03;;;26.70;41.52
69879;BME280;57161;43.136;24.706;2023-07-29T07:29:49;99001.88;;;26.77;41.48
69879;BME280;57161;43.136;24.706;2023-07-29T07:32:14;98999.03;;;26.77;41.46
69879;BME280;57161;43.136;24.706;2023-07-29T07:34:40;99002.81;;;26.84;41.67
69879;BME280;57161;43.136;24.706;2023-07-29T07:37:06;99007.91;;;26.85;41.69
69879;BME280;57161;43.136;24.706;2023-07-29T07:39:32;99005.03;;;26.85;41.52
69879;BME280;57161;43.136;24.706;2023-07-29T07:41:57;98997.91;;;26.86;41.40
69879;BME280;57161;43.136;24.706;2023-07-29T07:44:23;98988.22;;;26.76;41.57
69879;BME280;57161;43.136;24.706;2023-07-29T07:46:51;98994.97;;;26.84;41.59
69879;BME280;57161;43.136;24.706;2023-07-29T07:49:17;99004.44;;;26.89;41.54
69879;BME280;57161;43.136;24.706;2023-07-29T07:51:43;98997.91;;;26.86;41.58
69879;BME280;57161;43.136;24.706;2023-07-29T07:54:09;98990.72;;;26.85;41.79
69879;BME280;57161;43.136;24.706;2023-07-29T07:56:34;99007.44;;;26.93;41.79
69879;BME280;57161;43.136;24.706;2023-07-29T07:59:00;98990.78;;;26.87;41.52
69879;BME280;57161;43.136;24.706;2023-07-29T08:01:25;98990.13;;;26.89;41.60
69879;BME280;57161;43.136;24.706;2023-07-29T08:03:51;98993.03;;;26.91;41.66
69879;BME280;57161;43.136;24.706;2023-07-29T08:06:17;98992.50;;;26.97;41.84
69879;BME280;57161;43.136;24.706;2023-07-29T08:08:42;98972.63;;;26.81;41.60
69879;BME280;57161;43.136;24.706;2023-07-29T08:11:08;99003.31;;;26.98;41.69
69879;BME280;57161;43.136;24.706;2023-07-29T08:13:33;98994.78;;;27.00;41.89
69879;BME280;57161;43.136;24.706;2023-07-29T08:15:59;98995.53;;;27.01;41.84
69879;BME280;57161;43.136;24.706;2023-07-29T08:18:25;98981.03;;;26.97;41.87
69879;BME280;57161;43.136;24.706;2023-07-29T08:21:00;98986.94;;;27.01;41.61
69879;BME280;57161;43.136;24.706;2023-07-29T08:23:33;98982.75;;;27.04;41.66
69879;BME280;57161;43.136;24.706;2023-07-29T08:26:01;98978.47;;;27.05;41.63
69879;BME280;57161;43.136;24.706;2023-07-29T08:28:37;98972.75;;;27.05;41.89
69879;BME280;57161;43.136;24.706;2023-07-29T08:31:03;98973.34;;;27.01;41.70
69879;BME280;57161;43.136;24.706;2023-07-29T08:33:30;98982.03;;;27.03;41.89
69879;BME280;57161;43.136;24.706;2023-07-29T08:35:55;98974.16;;;27.04;41.88
69879;BME280;57161;43.136;24.706;2023-07-29T08:38:21;98977.03;;;27.04;41.92
69879;BME280;57161;43.136;24.706;2023-07-29T08:40:56;98985.13;;;27.11;41.73
69879;BME280;57161;43.136;24.706;2023-07-29T08:43:28;98985.75;;;27.08;41.67
69879;BME280;57161;43.136;24.706;2023-07-29T08:45:57;98983.69;;;27.10;41.69
69879;BME280;57161;43.136;24.706;2023-07-29T08:50:57;98983.81;;;27.14;41.86
69879;BME280;57161;43.136;24.706;2023-07-29T08:53:24;98971.53;;;27.12;41.64
69879;BME280;57161;43.136;24.706;2023-07-29T08:55:49;98969.47;;;27.14;41.84
69879;BME280;57161;43.136;24.706;2023-07-29T08:58:15;98967.22;;;27.11;41.74
69879;BME280;57161;43.136;24.706;2023-07-29T09:00:41;98969.47;;;27.14;41.65
69879;BME280;57161;43.136;24.706;2023-07-29T09:03:07;98965.88;;;27.14;41.76
69879;BME280;57161;43.136;24.706;2023-07-29T09:05:33;98963.00;;;27.14;41.80
69879;BME280;57161;43.136;24.706;2023-07-29T09:08:02;98971.13;;;27.21;41.65
69879;BME280;57161;43.136;24.706;2023-07-29T09:10:28;98971.88;;;27.22;41.72
69879;BME280;57161;43.136;24.706;2023-07-29T09:12:53;98966.03;;;27.18;41.78
69879;BME280;57161;43.136;24.706;2023-07-29T09:15:33;98966.19;;;27.24;41.80
69879;BME280;57161;43.136;24.706;2023-07-29T09:18:09;98954.59;;;27.20;41.89
69879;BME280;57161;43.136;24.706;2023-07-29T09:20:34;98963.41;;;27.26;41.62
69879;BME280;57161;43.136;24.706;2023-07-29T09:23:00;98965.53;;;27.26;41.80
69879;BME280;57161;43.136;24.706;2023-07-29T09:25:27;98974.19;;;27.28;41.73
69879;BME280;57161;43.136;24.706;2023-07-29T09:27:58;98957.00;;;27.28;42.05
69879;BME280;57161;43.136;24.706;2023-07-29T09:30:24;98956.19;;;27.25;41.78
69879;BME280;57161;43.136;24.706;2023-07-29T09:32:55;98950.53;;;27.27;41.63
69879;BME280;57161;43.136;24.706;2023-07-29T09:35:21;98949.84;;;27.29;41.84
69879;BME280;57161;43.136;24.706;2023-07-29T09:37:46;98951.31;;;27.30;41.75
69879;BME280;57161;43.136;24.706;2023-07-29T09:40:16;98945.47;;;27.26;41.66
69879;BME280;57161;43.136;24.706;2023-07-29T09:42:50;98956.53;;;27.35;41.71
69879;BME280;57161;43.136;24.706;2023-07-29T09:45:23;98942.53;;;27.24;41.55
69879;BME280;57161;43.136;24.706;2023-07-29T09:47:49;98946.31;;;27.30;41.83
69879;BME280;57161;43.136;24.706;2023-07-29T09:50:15;98952.25;;;27.36;41.76
69879;BME280;57161;43.136;24.706;2023-07-29T09:52:41;98954.44;;;27.38;41.71
69879;BME280;57161;43.136;24.706;2023-07-29T09:55:07;98939.22;;;27.33;41.87
69879;BME280;57161;43.136;24.706;2023-07-29T09:57:34;98950.13;;;27.37;41.85
69879;BME280;57161;43.136;24.706;2023-07-29T10:00:01;98949.50;;;27.40;42.00
69879;BME280;57161;43.136;24.706;2023-07-29T10:02:30;98943.81;;;27.42;41.97
69879;BME280;57161;43.136;24.706;2023-07-29T10:04:56;98946.69;;;27.42;41.89
69879;BME280;57161;43.136;24.706;2023-07-29T10:07:23;98933.03;;;27.41;41.68
69879;BME280;57161;43.136;24.706;2023-07-29T10:09:51;98935.28;;;27.44;41.85
69879;BME280;57161;43.136;24.706;2023-07-29T10:12:17;98935.22;;;27.42;41.67
69879;BME280;57161;43.136;24.706;2023-07-29T10:14:43;98933.09;;;27.43;41.84
69879;BME280;57161;43.136;24.706;2023-07-29T10:17:10;98938.22;;;27.46;41.72
69879;BME280;57161;43.136;24.706;2023-07-29T10:19:36;98930.34;;;27.47;41.93
69879;BME280;57161;43.136;24.706;2023-07-29T10:22:03;98933.19;;;27.47;41.68
69879;BME280;57161;43.136;24.706;2023-07-29T10:24:32;98934.00;;;27.49;41.65
69879;BME280;57161;43.136;24.706;2023-07-29T10:27:00;98932.63;;;27.50;41.78
69879;BME280;57161;43.136;24.706;2023-07-29T10:29:31;98924.59;;;27.47;41.65
69879;BME280;57161;43.136;24.706;2023-07-29T10:32:02;98926.88;;;27.50;41.64
69879;BME280;57161;43.136;24.706;2023-07-29T10:34:30;98920.31;;;27.48;41.85
69879;BME280;57161;43.136;24.706;2023-07-29T10:36:57;98906.66;;;27.46;41.74
69879;BME280;57161;43.136;24.706;2023-07-29T10:39:26;98914.00;;;27.51;41.61
69879;BME280;57161;43.136;24.706;2023-07-29T10:47:11;98904.16;;;27.59;41.72
69879;BME280;57161;43.136;24.706;2023-07-29T10:49:40;98907.69;;;27.57;41.82
69879;BME280;57161;43.136;24.706;2023-07-29T10:52:06;98893.25;;;27.53;41.59
69879;BME280;57161;43.136;24.706;2023-07-29T10:54:44;98899.09;;;27.57;41.76
69879;BME280;57161;43.136;24.706;2023-07-29T10:57:15;98903.53;;;27.62;41.86
69879;BME280;57161;43.136;24.706;2023-07-29T10:59:41;98897.06;;;27.62;41.90
69879;BME280;57161;43.136;24.706;2023-07-29T11:02:18;98899.34;;;27.65;41.61
69879;BME280;57161;43.136;24.706;2023-07-29T11:04:50;98896.47;;;27.65;41.72
69879;BME280;57161;43.136;24.706;2023-07-29T11:12:36;98883.34;;;27.58;41.63
69879;BME280;57161;43.136;24.706;2023-07-29T11:17:34;98900.28;;;27.72;41.58
69879;BME280;57161;43.136;24.706;2023-07-29T11:20:01;98878.72;;;27.71;41.53
69879;BME280;57161;43.136;24.706;2023-07-29T11:22:29;98882.38;;;27.73;41.68
69879;BME280;57161;43.136;24.706;2023-07-29T11:24:54;98890.31;;;27.75;41.68
69879;BME280;57161;43.136;24.706;2023-07-29T11:27:20;98887.50;;;27.77;41.62
69879;BME280;57161;43.136;24.706;2023-07-29T11:29:46;98879.59;;;27.77;41.61
69879;BME280;57161;43.136;24.706;2023-07-29T11:32:12;98881.81;;;27.79;41.73
69879;BME280;57161;43.136;24.706;2023-07-29T11:34:38;98876.06;;;27.79;41.50
69879;BME280;57161;43.136;24.706;2023-07-29T11:37:05;98868.91;;;27.80;41.84
69879;BME280;57161;43.136;24.706;2023-07-29T11:39:32;98866.78;;;27.80;41.55
69879;BME280;57161;43.136;24.706;2023-07-29T11:41:58;98869.78;;;27.85;41.74
69879;BME280;57161;43.136;24.706;2023-07-29T11:44:24;98856.75;;;27.81;41.70
69879;BME280;57161;43.136;24.706;2023-07-29T11:46:50;98858.09;;;27.78;41.72
69879;BME280;57161;43.136;24.706;2023-07-29T11:49:16;98863.38;;;27.86;41.63
69879;BME280;57161;43.136;24.706;2023-07-29T11:51:42;98862.00;;;27.89;41.94
69879;BME280;57161;43.136;24.706;2023-07-29T11:54:08;98861.31;;;27.91;41.59
69879;BME280;57161;43.136;24.706;2023-07-29T11:56:35;98846.81;;;27.85;41.86
69879;BME280;57161;43.136;24.706;2023-07-29T11:59:01;98859.28;;;27.95;41.84
69879;BME280;57161;43.136;24.706;2023-07-29T12:01:28;98852.94;;;27.99;41.78
69879;BME280;57161;43.136;24.706;2023-07-29T12:03:55;98844.22;;;27.95;41.92
69879;BME280;57161;43.136;24.706;2023-07-29T12:06:22;98842.25;;;28.01;42.05
69879;BME280;57161;43.136;24.706;2023-07-29T12:08:49;98856.81;;;28.09;42.18
69879;BME280;57161;43.136;24.706;2023-07-29T12:11:14;98848.25;;;28.11;42.24
69879;BME280;57161;43.136;24.706;2023-07-29T12:13:41;98850.56;;;28.17;42.23
69879;BME280;57161;43.136;24.706;2023-07-29T12:16:07;98843.41;;;28.18;42.17
69879;BME280;57161;43.136;24.706;2023-07-29T12:18:33;98850.75;;;28.25;42.29
69879;BME280;57161;43.136;24.706;2023-07-29T12:20:59;98844.41;;;28.29;42.39
69879;BME280;57161;43.136;24.706;2023-07-29T12:23:25;98839.47;;;28.31;42.32
69879;BME280;57161;43.136;24.706;2023-07-29T12:25:58;98837.44;;;28.36;42.17
69879;BME280;57161;43.136;24.706;2023-07-29T12:28:25;98844.72;;;28.41;42.53
69879;BME280;57161;43.136;24.706;2023-07-29T12:30:54;98841.22;;;28.45;42.55
69879;BME280;57161;43.136;24.706;2023-07-29T12:33:34;98831.28;;;28.48;42.57
69879;BME280;57161;43.136;24.706;2023-07-29T12:36:00;98834.25;;;28.52;42.59
69879;BME280;57161;43.136;24.706;2023-07-29T12:38:26;98830.72;;;28.55;42.21
69879;BME280;57161;43.136;24.706;2023-07-29T12:40:52;98832.97;;;28.59;42.29
69879;BME280;57161;43.136;24.706;2023-07-29T12:43:18;98822.25;;;28.61;42.42
69879;BME280;57161;43.136;24.706;2023-07-29T12:45:44;98829.56;;;28.66;42.23
69879;BME280;57161;43.136;24.706;2023-07-29T12:48:10;98823.88;;;28.68;42.40
69879;BME280;57161;43.136;24.706;2023-07-29T12:50:36;98823.13;;;28.68;42.64
69879;BME280;57161;43.136;24.706;2023-07-29T12:53:02;98831.97;;;28.78;42.58
69879;BME280;57161;43.136;24.706;2023-07-29T12:55:27;98821.91;;;28.77;42.71
69879;BME280;57161;43.136;24.706;2023-07-29T12:57:53;98826.47;;;28.86;42.83
69879;BME280;57161;43.136;24.706;2023-07-29T13:00:18;98825.81;;;28.90;42.86
69879;BME280;57161;43.136;24.706;2023-07-29T13:02:44;98826.63;;;28.94;42.75
69879;BME280;57161;43.136;24.706;2023-07-29T13:05:10;98822.41;;;28.97;42.84
69879;BME280;57161;43.136;24.706;2023-07-29T13:07:38;98823.19;;;29.00;42.62
69879;BME280;57161;43.136;24.706;2023-07-29T13:10:04;98819.63;;;29.02;42.76
69879;BME280;57161;43.136;24.706;2023-07-29T13:12:30;98817.56;;;29.06;43.00
69879;BME280;57161;43.136;24.706;2023-07-29T13:14:55;98818.34;;;29.09;43.06
69879;BME280;57161;43.136;24.706;2023-07-29T13:17:22;98817.88;;;29.20;43.04
69879;BME280;57161;43.136;24.706;2023-07-29T13:19:47;98828.09;;;29.27;42.75
69879;BME280;57161;43.136;24.706;2023-07-29T13:22:13;98815.97;;;29.31;43.29
69879;BME280;57161;43.136;24.706;2023-07-29T13:24:38;98820.38;;;29.36;42.89
69879;BME280;57161;43.136;24.706;2023-07-29T13:27:04;98816.13;;;29.39;43.36
69879;BME280;57161;43.136;24.706;2023-07-29T13:29:30;98820.66;;;29.48;43.04
69879;BME280;57161;43.136;24.706;2023-07-29T13:31:55;98809.16;;;29.48;43.35
69879;BME280;57161;43.136;24.706;2023-07-29T13:34:21;98813.63;;;29.57;43.33
69879;BME280;57161;43.136;24.706;2023-07-29T13:36:47;98807.22;;;29.61;43.28
69879;BME280;57161;43.136;24.706;2023-07-29T13:39:12;98800.81;;;29.63;43.26
69879;BME280;57161;43.136;24.706;2023-07-29T13:41:38;98803.81;;;29.71;43.29
69879;BME280;57161;43.136;24.706;2023-07-29T13:44:04;98804.63;;;29.75;43.29
69879;BME280;57161;43.136;24.706;2023-07-29T13:46:29;98802.44;;;29.74;43.07
69879;BME280;57161;43.136;24.706;2023-07-29T13:48:55;98811.91;;;29.78;43.19
69879;BME280;57161;43.136;24.706;2023-07-29T13:51:20;98803.28;;;29.78;43.07
69879;BME280;57161;43.136;24.706;2023-07-29T13:53:46;98804.78;;;29.83;43.03
69879;BME280;57161;43.136;24.706;2023-07-29T13:56:11;98796.09;;;29.79;43.02
69879;BME280;57161;43.136;24.706;2023-07-29T13:58:37;98799.75;;;29.84;42.85
69879;BME280;57161;43.136;24.706;2023-07-29T14:01:03;98800.47;;;29.82;42.67
69879;BME280;57161;43.136;24.706;2023-07-29T14:03:28;98798.34;;;29.85;42.63
69879;BME280;57161;43.136;24.706;2023-07-29T14:05:53;98789.00;;;29.86;42.67
69879;BME280;57161;43.136;24.706;2023-07-29T14:08:19;98789.00;;;29.86;42.95
69879;BME280;57161;43.136;24.706;2023-07-29T14:10:45;98794.84;;;29.91;42.91
69879;BME280;57161;43.136;24.706;2023-07-29T14:13:11;98792.69;;;29.91;42.83
69879;BME280;57161;43.136;24.706;2023-07-29T14:15:36;98791.94;;;29.88;42.96
69879;BME280;57161;43.136;24.706;2023-07-29T14:18:02;98784.72;;;29.87;42.53
69879;BME280;57161;43.136;24.706;2023-07-29T14:20:28;98776.09;;;29.89;42.70
69879;BME280;57161;43.136;24.706;2023-07-29T14:22:53;98783.41;;;29.95;42.68
69879;BME280;57161;43.136;24.706;2023-07-29T14:25:19;98786.41;;;30.01;42.96
69879;BME280;57161;43.136;24.706;2023-07-29T14:27:44;98792.25;;;30.05;42.96
69879;BME280;57161;43.136;24.706;2023-07-29T14:30:10;98793.72;;;30.08;42.84
69879;BME280;57161;43.136;24.706;2023-07-29T14:32:35;98793.03;;;30.09;42.80
69879;BME280;57161;43.136;24.706;2023-07-29T14:35:03;98796.63;;;30.08;42.55
69879;BME280;57161;43.136;24.706;2023-07-29T14:37:29;98798.13;;;30.11;42.79
69879;BME280;57161;43.136;24.706;2023-07-29T14:39:56;98801.03;;;30.13;42.38
69879;BME280;57161;43.136;24.706;2023-07-29T14:42:22;98801.00;;;30.11;42.31
69879;BME280;57161;43.136;24.706;2023-07-29T14:44:48;98792.38;;;30.11;42.63
69879;BME280;57161;43.136;24.706;2023-07-29T14:47:13;98790.22;;;30.11;42.45
69879;BME280;57161;43.136;24.706;2023-07-29T14:49:39;98793.13;;;30.13;42.59
69879;BME280;57161;43.136;24.706;2023-07-29T14:52:06;98793.03;;;30.09;42.38
69879;BME280;57161;43.136;24.706;2023-07-29T14:54:31;98789.50;;;30.11;42.20
69879;BME280;57161;43.136;24.706;2023-07-29T14:56:57;98790.88;;;30.10;42.35
69879;BME280;57161;43.136;24.706;2023-07-29T14:59:23;98793.91;;;30.16;42.14
69879;BME280;57161;43.136;24.706;2023-07-29T15:01:48;98795.31;;;30.15;42.43
69879;BME280;57161;43.136;24.706;2023-07-29T15:04:14;98786.56;;;30.09;42.50
69879;BME280;57161;43.136;24.706;2023-07-29T15:06:39;98793.81;;;30.12;42.55
69879;BME280;57161;43.136;24.706;2023-07-29T15:09:05;98790.22;;;30.11;42.20
69879;BME280;57161;43.136;24.706;2023-07-29T15:11:31;98798.13;;;30.11;42.52
69879;BME280;57161;43.136;24.706;2023-07-29T15:13:59;98786.56;;;30.09;42.22
69879;BME280;57161;43.136;24.706;2023-07-29T15:16:25;98785.13;;;30.10;42.12
69879;BME280;57161;43.136;24.706;2023-07-29T15:18:51;98794.59;;;30.14;42.21
69879;BME280;57161;43.136;24.706;2023-07-29T15:21:16;98791.78;;;30.18;42.37
69879;BME280;57161;43.136;24.706;2023-07-29T15:23:43;98791.81;;;30.21;42.07
69879;BME280;57161;43.136;24.706;2023-07-29T15:26:09;98789.66;;;30.21;42.45
69879;BME280;57161;43.136;24.706;2023-07-29T15:28:35;98783.16;;;30.21;42.08
69879;BME280;57161;43.136;24.706;2023-07-29T15:31:00;98790.44;;;30.26;42.13
69879;BME280;57161;43.136;24.706;2023-07-29T15:33:26;98773.81;;;30.22;41.97
69879;BME280;57161;43.136;24.706;2023-07-29T15:35:52;98772.25;;;30.13;42.25
69879;BME280;57161;43.136;24.706;2023-07-29T15:38:18;98789.72;;;30.25;42.37
69879;BME280;57161;43.136;24.706;2023-07-29T15:40:44;98796.94;;;30.26;42.26
69879;BME280;57161;43.136;24.706;2023-07-29T15:43:09;98789.81;;;30.29;42.00
69879;BME280;57161;43.136;24.706;2023-07-29T15:45:35;98792.59;;;30.25;42.03
69879;BME280;57161;43.136;24.706;2023-07-29T15:48:00;98786.03;;;30.21;42.07
69879;BME280;57161;43.136;24.706;2023-07-29T15:50:26;98780.22;;;30.16;42.16
69879;BME280;57161;43.136;24.706;2023-07-29T15:52:52;98799.09;;;30.26;42.23
69879;BME280;57161;43.136;24.706;2023-07-29T15:55:17;98800.56;;;30.27;41.96
69879;BME280;57161;43.136;24.706;2023-07-29T15:57:43;98787.47;;;30.20;42.05
69879;BME280;57161;43.136;24.706;2023-07-29T16:00:09;98792.59;;;30.25;42.27
69879;BME280;57161;43.136;24.706;2023-07-29T16:02:34;98786.81;;;30.23;41.94
69879;BME280;57161;43.136;24.706;2023-07-29T16:05:00;98795.44;;;30.23;42.10
69879;BME280;57161;43.136;24.706;2023-07-29T16:07:25;98785.97;;;30.16;41.90
69879;BME280;57161;43.136;24.706;2023-07-29T16:09:51;98789.63;;;30.19;42.12
69879;BME280;57161;43.136;24.706;2023-07-29T16:12:16;98798.28;;;30.21;42.14
69879;BME280;57161;43.136;24.706;2023-07-29T16:14:42;98803.22;;;30.14;41.88
69879;BME280;57161;43.136;24.706;2023-07-29T16:17:07;98806.19;;;30.18;42.14
69879;BME280;57161;43.136;24.706;2023-07-29T16:19:52;98806.16;;;30.16;41.90
69879;BME280;57161;43.136;24.706;2023-07-29T16:22:18;98808.28;;;30.16;41.73
69879;BME280;57161;43.136;24.706;2023-07-29T16:24:43;98806.88;;;30.17;41.97
69879;BME280;57161;43.136;24.706;2023-07-29T16:27:09;98805.34;;;30.12;41.85
69879;BME280;57161;43.136;24.706;2023-07-29T16:29:34;98812.63;;;30.17;41.65
69879;BME280;57161;43.136;24.706;2023-07-29T16:32:00;98807.56;;;30.15;41.62